Time;durP1;ratioP1;P1;durP2;ratioP2;P2;SDS_P1;SDS_P2;PMS_P1;PMS_P2;Temp;Humidity;BMP_temperature;BMP_pressure;BME280_temperature;BME280_humidity;BME280_pressure;Samples;Min_cycle;Max_cycle;Signal;HPM_P1;HPM_P2
2022/02/14 00:00:42;;;;;;;;;;;;;;;18.87;49.55;99098.09;2054966;28;19925;-46
2022/02/14 00:01:43;;;;;;;;;;;;;;;18.88;49.45;99104.41;2056420;28;19925;-45
2022/02/14 00:02:43;;;;;;;;;;;;;;;18.87;49.59;99099.97;2058485;28;19944;-44
2022/02/14 00:03:44;;;;;;;;;;;;;;;18.87;49.43;99097.25;2053121;28;20380;-44
2022/02/14 00:04:44;;;;;;;;;;;;;;;18.88;49.45;99098.94;2055958;28;19917;-45
2022/02/14 00:05:44;;;;;;;;;;;;;;;18.88;49.45;99104.41;2058985;28;20034;-44
2022/02/14 00:06:45;;;;;;;;;;;;;;;18.88;49.51;99109.88;2056885;28;19917;-45
2022/02/14 00:07:45;;;;;;;;;;;;;;;18.88;49.34;99109.88;2047717;28;19940;-45
2022/02/14 00:08:46;;;;;;;;;;;;;;;18.88;49.30;99107.13;2041693;28;20229;-44
2022/02/14 00:09:46;;;;;;;;;;;;;;;18.89;49.34;99106.97;2047997;28;20062;-45
2022/02/14 00:10:47;;;;;;;;;;;;;;;18.89;49.40;99117.00;2058664;28;19975;-44
2022/02/14 00:11:47;;;;;;;;;;;;;;;18.89;49.24;99119.75;2059157;28;19936;-44
2022/02/14 00:12:48;;;;;;;;;;;;;;;18.89;49.34;99125.22;2058514;28;19921;-44
2022/02/14 00:13:48;;;;;;;;;;;;;;;18.90;49.32;99135.13;2058243;28;19953;-45
2022/02/14 00:14:48;;;;;;;;;;;;;;;18.90;49.35;99140.59;2057505;28;19910;-45
2022/02/14 00:15:51;;;;;;;;;;;;;;;18.90;49.34;99140.59;2055489;28;20628;-45
2022/02/14 00:16:52;;;;;;;;;;;;;;;18.92;49.27;99146.72;2057213;28;19917;-46
2022/02/14 00:17:52;;;;;;;;;;;;;;;18.91;49.35;99154.03;2056674;28;20118;-44
2022/02/14 00:18:52;;;;;;;;;;;;;;;18.92;49.41;99154.91;2059994;28;19933;-43
2022/02/14 00:19:53;;;;;;;;;;;;;;;18.93;49.36;99151.16;2057796;28;20006;-44
2022/02/14 00:20:53;;;;;;;;;;;;;;;18.93;49.29;99156.63;2056109;28;20318;-44
2022/02/14 00:21:53;;;;;;;;;;;;;;;18.92;49.32;99149.47;2054266;28;19922;-45
2022/02/14 00:22:54;;;;;;;;;;;;;;;18.93;49.36;99141.06;2058826;28;19988;-44
2022/02/14 00:23:54;;;;;;;;;;;;;;;18.94;49.32;99136.50;2059698;28;19921;-45
2022/02/14 00:24:55;;;;;;;;;;;;;;;18.94;49.37;99131.03;2048990;28;20312;-45
2022/02/14 00:25:55;;;;;;;;;;;;;;;18.94;49.38;99123.69;2046915;28;19922;-46
2022/02/14 00:26:55;;;;;;;;;;;;;;;18.94;49.35;99129.16;2058888;28;19929;-45
2022/02/14 00:27:57;;;;;;;;;;;;;;;18.95;49.48;99127.25;2057209;28;20287;-44
2022/02/14 00:28:58;;;;;;;;;;;;;;;18.92;49.38;99127.63;2059144;28;19927;-45
2022/02/14 00:29:58;;;;;;;;;;;;;;;18.92;49.48;99123.00;2059091;28;19914;-45
2022/02/14 00:30:59;;;;;;;;;;;;;;;18.94;49.34;99122.84;2056199;28;20339;-45
2022/02/14 00:31:59;;;;;;;;;;;;;;;18.93;49.41;99126.56;2053417;28;19913;-43
2022/02/14 00:33:00;;;;;;;;;;;;;;;18.95;49.52;99138.19;2059879;28;20677;-45
2022/02/14 00:34:00;;;;;;;;;;;;;;;18.96;49.34;99131.69;2058484;28;19914;-44
2022/02/14 00:35:00;;;;;;;;;;;;;;;18.95;49.50;99127.25;2058100;28;19918;-44
2022/02/14 00:36:01;;;;;;;;;;;;;;;18.94;49.46;99122.84;2058991;28;19927;-43
2022/02/14 00:37:02;;;;;;;;;;;;;;;18.96;49.52;99123.50;2057366;28;19913;-44
2022/02/14 00:38:03;;;;;;;;;;;;;;;18.94;49.29;99120.09;2055539;28;19918;-44
2022/02/14 00:39:04;;;;;;;;;;;;;;;18.94;49.41;99122.84;2060542;28;19918;-44
2022/02/14 00:40:04;;;;;;;;;;;;;;;18.93;49.45;99121.13;2059088;28;19914;-44
2022/02/14 00:41:04;;;;;;;;;;;;;;;18.93;49.42;99121.97;2063220;28;19913;-43
2022/02/14 00:42:05;;;;;;;;;;;;;;;18.92;49.42;99122.16;2058676;28;19921;-43
2022/02/14 00:43:06;;;;;;;;;;;;;;;18.92;49.56;99105.78;2059339;28;19941;-43
2022/02/14 00:44:07;;;;;;;;;;;;;;;18.93;49.45;99096.53;2060618;28;19921;-44
2022/02/14 00:45:07;;;;;;;;;;;;;;;18.92;49.48;99081.19;2058581;28;19921;-44
2022/02/14 00:46:07;;;;;;;;;;;;;;;18.92;49.46;99086.66;2056524;28;20739;-44
2022/02/14 00:47:08;;;;;;;;;;;;;;;18.89;49.51;99079.66;2057821;28;19925;-44
2022/02/14 00:48:08;;;;;;;;;;;;;;;18.91;49.49;99077.59;2058423;28;19937;-44
2022/02/14 00:49:08;;;;;;;;;;;;;;;18.89;49.58;99065.13;2053962;28;19937;-45
2022/02/14 00:50:11;;;;;;;;;;;;;;;18.90;49.47;99055.94;2058423;28;20379;-44
2022/02/14 00:51:11;;;;;;;;;;;;;;;18.89;49.50;99041.44;2054452;28;19932;-44
2022/02/14 00:52:12;;;;;;;;;;;;;;;18.90;49.46;99031.34;2059513;28;19918;-46
2022/02/14 00:53:12;;;;;;;;;;;;;;;18.90;49.44;99017.69;2059404;28;19920;-44
2022/02/14 00:54:12;;;;;;;;;;;;;;;18.87;49.47;98999.78;2058814;28;20339;-45
2022/02/14 00:55:13;;;;;;;;;;;;;;;18.89;49.60;98991.41;2056975;28;19921;-45
2022/02/14 00:56:14;;;;;;;;;;;;;;;18.88;49.53;98987.00;2059085;28;20004;-46
2022/02/14 00:57:14;;;;;;;;;;;;;;;18.87;49.62;98986.13;2059854;28;19928;-44
2022/02/14 00:58:15;;;;;;;;;;;;;;;18.87;49.51;98969.75;2052398;28;19914;-44
2022/02/14 00:59:15;;;;;;;;;;;;;;;18.87;49.45;98961.56;2051786;28;20015;-43
2022/02/14 01:00:16;;;;;;;;;;;;;;;18.86;49.51;98962.56;2040316;28;19914;-45
2022/02/14 01:01:17;;;;;;;;;;;;;;;18.86;49.44;98968.03;2050624;28;19914;-43
2022/02/14 01:02:17;;;;;;;;;;;;;;;18.87;49.59;98974.38;2056675;28;19920;-45
2022/02/14 01:03:18;;;;;;;;;;;;;;;18.87;49.54;98963.44;2049050;28;19914;-44
2022/02/14 01:04:18;;;;;;;;;;;;;;;18.85;49.53;98969.91;2047762;28;20422;-43
2022/02/14 01:05:18;;;;;;;;;;;;;;;18.87;49.56;98971.66;2047579;28;19918;-44
2022/02/14 01:06:19;;;;;;;;;;;;;;;18.87;49.52;98971.66;2048135;28;20381;-44
2022/02/14 01:07:20;;;;;;;;;;;;;;;18.88;49.58;98973.34;2058202;28;19917;-45
2022/02/14 01:08:20;;;;;;;;;;;;;;;18.88;49.55;98978.78;2058379;28;19925;-44
2022/02/14 01:09:21;;;;;;;;;;;;;;;18.87;49.63;98983.41;2052646;28;19921;-44
2022/02/14 01:10:21;;;;;;;;;;;;;;;18.83;49.50;98971.13;2056548;28;20040;-44
2022/02/14 01:11:22;;;;;;;;;;;;;;;18.83;49.62;98973.84;2057536;28;19921;-44
2022/02/14 01:12:24;;;;;;;;;;;;;;;18.82;49.66;98975.75;2054004;28;19957;-43
2022/02/14 01:13:24;;;;;;;;;;;;;;;18.82;49.49;98969.44;2058139;28;19921;-45
2022/02/14 01:14:24;;;;;;;;;;;;;;;18.80;49.61;98966.03;2059315;28;19933;-44
2022/02/14 01:15:25;;;;;;;;;;;;;;;18.80;49.74;98966.88;2058245;28;19929;-44
2022/02/14 01:16:26;;;;;;;;;;;;;;;18.80;49.67;98966.88;2059555;28;19955;-44
2022/02/14 01:17:26;;;;;;;;;;;;;;;18.80;49.74;98971.47;2058042;28;19929;-44
2022/02/14 01:18:26;;;;;;;;;;;;;;;18.79;49.71;98959.72;2060434;28;19949;-43
2022/02/14 01:19:27;;;;;;;;;;;;;;;18.78;49.58;98960.72;2057131;28;20320;-43
2022/02/14 01:20:27;;;;;;;;;;;;;;;18.79;49.80;98965.19;2057057;28;19913;-44
2022/02/14 01:21:28;;;;;;;;;;;;;;;18.79;49.74;98969.75;2057873;28;19922;-43
2022/02/14 01:22:28;;;;;;;;;;;;;;;18.77;49.61;98974.56;2058023;28;20209;-44
2022/02/14 01:23:28;;;;;;;;;;;;;;;18.77;49.74;98972.69;2054453;28;20016;-44
2022/02/14 01:24:29;;;;;;;;;;;;;;;18.76;49.60;98981.88;2058281;28;19925;-43
2022/02/14 01:25:29;;;;;;;;;;;;;;;18.75;49.68;98988.34;2057819;28;19918;-43
2022/02/14 01:26:29;;;;;;;;;;;;;;;18.74;49.62;98983.94;2049188;28;19961;-43
2022/02/14 01:27:30;;;;;;;;;;;;;;;18.74;49.61;98989.41;2049954;28;19920;-44
2022/02/14 01:28:30;;;;;;;;;;;;;;;18.74;49.61;98983.94;2056795;28;19980;-44
2022/02/14 01:29:32;;;;;;;;;;;;;;;18.74;49.67;98981.19;2052115;28;19922;-45
2022/02/14 01:30:33;;;;;;;;;;;;;;;18.74;49.69;98981.19;2045362;28;19914;-44
2022/02/14 01:31:33;;;;;;;;;;;;;;;18.74;49.63;98983.94;2040163;28;20970;-43
2022/02/14 01:32:34;;;;;;;;;;;;;;;18.74;49.80;98983.94;2048644;28;20057;-45
2022/02/14 01:33:34;;;;;;;;;;;;;;;18.75;49.86;98984.78;2057277;28;20682;-47
2022/02/14 01:34:34;;;;;;;;;;;;;;;18.75;49.65;98984.78;2054888;28;19921;-45
2022/02/14 01:35:35;;;;;;;;;;;;;;;18.74;49.58;98983.94;2047852;28;20849;-44
2022/02/14 01:36:36;;;;;;;;;;;;;;;18.74;49.63;98983.06;2054827;28;19945;-43
2022/02/14 01:37:39;;;;;;;;;;;;;;;18.73;49.72;98982.22;2062337;28;19921;-43
2022/02/14 01:38:39;;;;;;;;;;;;;;;18.74;49.64;98988.50;2049078;28;19921;-43
2022/02/14 01:39:41;;;;;;;;;;;;;;;18.73;49.75;98993.13;2049520;28;20269;-44
2022/02/14 01:40:41;;;;;;;;;;;;;;;18.73;49.61;98993.13;2057266;28;20013;-44
2022/02/14 01:41:41;;;;;;;;;;;;;;;18.73;49.63;98987.66;2057474;28;20249;-44
2022/02/14 01:42:41;;;;;;;;;;;;;;;18.74;49.68;98994.84;2057593;28;19932;-44
2022/02/14 01:43:43;;;;;;;;;;;;;;;18.73;49.84;98997.75;2058218;28;19925;-44
2022/02/14 01:44:45;;;;;;;;;;;;;;;18.72;49.71;99002.34;2056437;28;20177;-44
2022/02/14 01:45:45;;;;;;;;;;;;;;;18.72;49.84;98996.06;2057717;28;20004;-44
2022/02/14 01:46:46;;;;;;;;;;;;;;;18.71;49.77;98997.91;2057473;28;19921;-45
2022/02/14 01:47:46;;;;;;;;;;;;;;;18.71;49.75;99000.63;2058100;28;20055;-43
2022/02/14 01:48:46;;;;;;;;;;;;;;;18.71;49.79;99002.53;2055316;28;20457;-44
2022/02/14 01:49:47;;;;;;;;;;;;;;;18.71;49.81;98997.06;2057444;28;20545;-44
2022/02/14 01:50:48;;;;;;;;;;;;;;;18.68;49.89;98995.53;2063634;28;19921;-44
2022/02/14 01:51:49;;;;;;;;;;;;;;;18.67;49.80;98988.38;2055505;28;19913;-44
2022/02/14 01:52:53;;;;;;;;;;;;;;;18.67;49.93;98982.91;2058540;28;19920;-44
2022/02/14 01:53:54;;;;;;;;;;;;;;;18.65;50.04;98979.50;2056735;28;19928;-43
2022/02/14 01:54:54;;;;;;;;;;;;;;;18.59;49.86;98972.00;2057773;28;19928;-45
2022/02/14 01:55:55;;;;;;;;;;;;;;;18.52;49.78;98971.88;2055961;28;19972;-44
2022/02/14 01:56:55;;;;;;;;;;;;;;;18.46;49.94;98968.97;2054786;28;20077;-44
2022/02/14 01:57:55;;;;;;;;;;;;;;;18.39;49.73;98963.34;2057961;28;19921;-44
2022/02/14 01:58:55;;;;;;;;;;;;;;;18.33;49.89;98974.97;2054331;28;20291;-44
2022/02/14 01:59:58;;;;;;;;;;;;;;;18.29;50.06;98981.78;2052438;28;19914;-44
2022/02/14 02:00:58;;;;;;;;;;;;;;;18.23;50.08;98986.06;2044958;28;19972;-45
2022/02/14 02:01:59;;;;;;;;;;;;;;;18.20;50.12;98989.09;2048487;28;19929;-44
2022/02/14 02:03:00;;;;;;;;;;;;;;;18.17;50.41;98993.03;2056372;28;19963;-45
2022/02/14 02:04:00;;;;;;;;;;;;;;;18.16;50.41;99001.38;2055456;28;20260;-45
2022/02/14 02:05:00;;;;;;;;;;;;;;;18.14;50.65;99009.72;2055834;28;20290;-44
2022/02/14 02:06:01;;;;;;;;;;;;;;;18.13;50.62;99007.19;2046676;28;19921;-45
2022/02/14 02:07:04;;;;;;;;;;;;;;;18.10;50.62;99004.78;2048950;28;20283;-44
2022/02/14 02:08:05;;;;;;;;;;;;;;;18.09;50.71;99006.66;2053633;28;20016;-43
2022/02/14 02:09:05;;;;;;;;;;;;;;;18.09;50.63;99000.38;2057058;28;19925;-45
2022/02/14 02:10:07;;;;;;;;;;;;;;;18.08;50.67;99004.97;2058521;28;19921;-44
2022/02/14 02:12:27;;;;;;;;;;;;;;;18.06;50.93;99003.44;2059028;28;19968;-44
2022/02/14 02:13:27;;;;;;;;;;;;;;;18.05;50.85;99004.44;2047520;28;19922;-43
2022/02/14 02:14:27;;;;;;;;;;;;;;;18.05;50.79;99007.16;2050464;28;20438;-44
2022/02/14 02:15:27;;;;;;;;;;;;;;;18.04;51.05;99010.94;2057594;28;19924;-45
2022/02/14 02:16:28;;;;;;;;;;;;;;;18.04;50.83;99013.66;2049566;28;19921;-45
2022/02/14 02:17:30;;;;;;;;;;;;;;;18.03;50.94;99006.47;2048452;28;20315;-44
2022/02/14 02:18:31;;;;;;;;;;;;;;;18.03;50.90;99006.47;2059390;28;19922;-44
2022/02/14 02:19:31;;;;;;;;;;;;;;;18.02;51.09;99010.25;2054970;28;19949;-45
2022/02/14 02:20:33;;;;;;;;;;;;;;;18.00;51.18;99011.25;2055426;28;19914;-44
2022/02/14 02:21:33;;;;;;;;;;;;;;;17.99;51.02;99012.28;2059645;28;19917;-46
2022/02/14 02:22:34;;;;;;;;;;;;;;;17.99;51.07;99017.72;2057333;28;19918;-44
2022/02/14 02:23:38;;;;;;;;;;;;;;;17.98;50.99;99021.50;2056225;28;19925;-45
2022/02/14 02:24:43;;;;;;;;;;;;;;;17.97;51.24;99022.50;2056973;28;19922;-44
2022/02/14 02:25:43;;;;;;;;;;;;;;;17.96;51.17;99023.53;2055153;28;20243;-45
2022/02/14 02:26:54;;;;;;;;;;;;;;;17.97;51.34;99025.22;2053739;28;19929;-43
2022/02/14 02:27:55;;;;;;;;;;;;;;;17.96;51.05;99031.72;2057661;28;19964;-44
2022/02/14 02:28:55;;;;;;;;;;;;;;;17.95;51.13;99030.00;2058696;28;19921;-44
2022/02/14 02:29:57;;;;;;;;;;;;;;;17.95;51.40;99043.63;2052037;28;20570;-45
2022/02/14 02:31:01;;;;;;;;;;;;;;;17.94;51.30;99041.94;2054373;28;20190;-45
2022/02/14 02:32:02;;;;;;;;;;;;;;;17.94;51.17;99047.38;2058261;28;19929;-44
2022/02/14 02:33:02;;;;;;;;;;;;;;;17.93;51.28;99053.88;2058246;28;20348;-44
2022/02/14 02:34:04;;;;;;;;;;;;;;;17.91;51.27;99055.91;2056948;28;20469;-43
2022/02/14 02:35:05;;;;;;;;;;;;;;;17.90;51.26;99062.34;2058736;28;19979;-44
2022/02/14 02:36:06;;;;;;;;;;;;;;;17.89;51.33;99068.84;2059361;28;20296;-44
2022/02/14 02:37:08;;;;;;;;;;;;;;;17.88;51.37;99080.75;2049037;28;19926;-46
2022/02/14 02:38:08;;;;;;;;;;;;;;;17.87;51.34;99079.06;2051706;28;19926;-45
2022/02/14 02:39:09;;;;;;;;;;;;;;;17.87;51.50;99073.59;2049974;28;19922;-44
2022/02/14 02:40:09;;;;;;;;;;;;;;;17.87;51.57;99081.78;2058800;28;19925;-44
2022/02/14 02:41:10;;;;;;;;;;;;;;;17.86;51.62;99074.63;2054909;28;20269;-43
2022/02/14 02:42:11;;;;;;;;;;;;;;;17.85;51.77;99072.91;2056475;28;19993;-45
2022/02/14 02:43:11;;;;;;;;;;;;;;;17.85;51.38;99069.34;2058410;28;19928;-45
2022/02/14 02:44:12;;;;;;;;;;;;;;;17.83;51.62;99066.78;2056957;28;19960;-45
2022/02/14 02:45:13;;;;;;;;;;;;;;;17.82;51.64;99062.34;2058470;28;20283;-44
2022/02/14 02:46:13;;;;;;;;;;;;;;;17.83;51.34;99060.47;2057391;28;19925;-45
2022/02/14 02:47:15;;;;;;;;;;;;;;;17.82;51.63;99059.63;2058739;28;19921;-43
2022/02/14 02:48:15;;;;;;;;;;;;;;;17.82;51.60;99056.06;2058516;28;19979;-44
2022/02/14 02:49:18;;;;;;;;;;;;;;;17.80;51.63;99053.47;2057085;28;19925;-44
2022/02/14 02:50:18;;;;;;;;;;;;;;;17.81;51.75;99063.38;2058849;28;19929;-43
2022/02/14 02:51:18;;;;;;;;;;;;;;;17.80;51.44;99050.75;2057358;28;19924;-43
2022/02/14 02:52:19;;;;;;;;;;;;;;;17.82;51.57;99053.31;2057249;28;20205;-45
2022/02/14 02:53:19;;;;;;;;;;;;;;;17.80;51.85;99053.47;2056352;28;19924;-44
2022/02/14 02:54:20;;;;;;;;;;;;;;;17.79;51.77;99049.88;2056780;28;19913;-45
2022/02/14 02:55:21;;;;;;;;;;;;;;;17.80;51.81;99050.75;2059213;28;20025;-44
2022/02/14 02:56:21;;;;;;;;;;;;;;;17.79;51.69;99049.88;2058143;28;20259;-44
2022/02/14 02:57:21;;;;;;;;;;;;;;;17.80;51.57;99056.22;2058607;28;19983;-44
2022/02/14 02:58:22;;;;;;;;;;;;;;;17.79;51.92;99049.88;2059265;28;19944;-45
2022/02/14 02:59:23;;;;;;;;;;;;;;;17.79;51.59;99057.22;2056564;28;19961;-44
2022/02/14 03:00:23;;;;;;;;;;;;;;;17.79;51.71;99054.47;2059186;28;19971;-48
2022/02/14 03:01:24;;;;;;;;;;;;;;;17.77;51.69;99045.59;2056594;28;19925;-44
2022/02/14 03:02:24;;;;;;;;;;;;;;;17.77;51.83;99051.91;2059260;28;19929;-44
2022/02/14 03:03:25;;;;;;;;;;;;;;;17.78;51.76;99050.03;2057988;28;20348;-43
2022/02/14 03:04:25;;;;;;;;;;;;;;;17.77;51.94;99051.91;2058661;28;19921;-44
2022/02/14 03:05:28;;;;;;;;;;;;;;;17.76;51.81;99054.78;2059530;28;20106;-45
2022/02/14 03:06:28;;;;;;;;;;;;;;;17.75;52.00;99053.94;2057565;28;20062;-45
2022/02/14 03:07:29;;;;;;;;;;;;;;;17.76;51.88;99061.13;2057373;28;19929;-43
2022/02/14 03:08:29;;;;;;;;;;;;;;;17.76;51.85;99057.50;2059286;28;19926;-44
2022/02/14 03:09:29;;;;;;;;;;;;;;;17.76;51.96;99054.78;2058743;28;19929;-44
2022/02/14 03:10:29;;;;;;;;;;;;;;;17.75;51.86;99061.28;2057320;28;20052;-44
2022/02/14 03:11:30;;;;;;;;;;;;;;;17.76;51.93;99065.69;2061302;28;19917;-44
2022/02/14 03:12:30;;;;;;;;;;;;;;;17.75;51.87;99070.28;2056440;28;21147;-44
2022/02/14 03:13:31;;;;;;;;;;;;;;;17.75;51.93;99077.63;2062756;28;20382;-44
2022/02/14 03:14:31;;;;;;;;;;;;;;;17.75;51.98;99074.91;2058097;28;19935;-44
2022/02/14 03:15:31;;;;;;;;;;;;;;;17.75;51.96;99080.34;2059606;28;19932;-44
2022/02/14 03:16:32;;;;;;;;;;;;;;;17.75;51.80;99085.81;2060236;28;19949;-44
2022/02/14 03:17:32;;;;;;;;;;;;;;;17.75;51.79;99092.09;2056959;28;19976;-44
2022/02/14 03:18:34;;;;;;;;;;;;;;;17.75;51.94;99096.72;2058119;28;19929;-44
2022/02/14 03:19:34;;;;;;;;;;;;;;;17.75;51.89;99096.72;2059537;28;20080;-44
2022/02/14 03:20:36;;;;;;;;;;;;;;;17.76;51.97;99092.94;2057124;28;19928;-44
2022/02/14 03:21:37;;;;;;;;;;;;;;;17.75;51.81;99091.25;2059563;28;19926;-45
2022/02/14 03:22:38;;;;;;;;;;;;;;;17.75;51.88;99092.09;2059563;28;19983;-44
2022/02/14 03:23:38;;;;;;;;;;;;;;;17.74;51.91;99089.56;2062555;28;20623;-44
2022/02/14 03:24:39;;;;;;;;;;;;;;;17.75;51.93;99091.25;2056897;28;19925;-46
2022/02/14 03:25:39;;;;;;;;;;;;;;;17.74;52.12;99090.41;2059369;28;19924;-44
2022/02/14 03:26:39;;;;;;;;;;;;;;;17.74;51.98;99089.56;2057114;28;19914;-44
2022/02/14 03:27:40;;;;;;;;;;;;;;;17.73;52.14;99094.13;2056080;28;19920;-43
2022/02/14 03:28:40;;;;;;;;;;;;;;;17.74;52.22;99095.84;2061880;28;19917;-44
2022/02/14 03:29:40;;;;;;;;;;;;;;;17.73;51.95;99090.56;2058520;28;19917;-46
2022/02/14 03:30:40;;;;;;;;;;;;;;;17.74;51.82;99089.56;2058936;28;20084;-45
2022/02/14 03:31:41;;;;;;;;;;;;;;;17.73;51.92;99085.13;2060636;28;19917;-43
2022/02/14 03:32:41;;;;;;;;;;;;;;;17.73;51.86;99085.13;2057687;28;20555;-44
2022/02/14 03:33:43;;;;;;;;;;;;;;;17.73;51.97;99085.13;2060735;28;19971;-45
2022/02/14 03:34:44;;;;;;;;;;;;;;;17.72;52.16;99081.53;2056286;28;20386;-43
2022/02/14 03:35:44;;;;;;;;;;;;;;;17.72;52.10;99083.41;2055241;28;19921;-45
2022/02/14 03:36:44;;;;;;;;;;;;;;;17.72;52.12;99081.53;2058360;28;20529;-45
2022/02/14 03:37:45;;;;;;;;;;;;;;;17.72;52.17;99081.53;2058542;28;19914;-45
2022/02/14 03:38:45;;;;;;;;;;;;;;;17.72;52.06;99080.69;2054850;28;19921;-45
2022/02/14 03:39:46;;;;;;;;;;;;;;;17.71;52.04;99074.41;2053628;28;19991;-44
2022/02/14 03:40:46;;;;;;;;;;;;;;;17.71;52.19;99074.41;2051268;28;19921;-44
2022/02/14 03:41:47;;;;;;;;;;;;;;;17.70;51.98;99066.38;2051518;28;19918;-44
2022/02/14 03:42:47;;;;;;;;;;;;;;;17.70;52.29;99071.81;2057461;28;19925;-45
2022/02/14 03:43:48;;;;;;;;;;;;;;;17.70;52.09;99072.66;2055068;28;19925;-43
2022/02/14 03:44:48;;;;;;;;;;;;;;;17.69;52.08;99064.69;2057106;28;19972;-44
2022/02/14 03:45:48;;;;;;;;;;;;;;;17.69;52.21;99064.69;2059011;28;19932;-44
2022/02/14 03:46:48;;;;;;;;;;;;;;;17.69;52.35;99070.13;2059116;28;19917;-45
2022/02/14 03:47:49;;;;;;;;;;;;;;;17.67;52.22;99067.56;2057798;28;20631;-44
2022/02/14 03:48:49;;;;;;;;;;;;;;;17.67;52.23;99061.25;2060291;28;20551;-44
2022/02/14 03:49:50;;;;;;;;;;;;;;;17.66;52.43;99071.28;2053928;28;20822;-45
2022/02/14 03:50:50;;;;;;;;;;;;;;;17.65;52.45;99066.88;2048481;28;19914;-44
2022/02/14 03:51:51;;;;;;;;;;;;;;;17.66;52.35;99071.28;2057892;28;20316;-43
2022/02/14 03:52:51;;;;;;;;;;;;;;;17.65;52.30;99074.19;2059202;28;19926;-44
2022/02/14 03:53:52;;;;;;;;;;;;;;;17.63;52.24;99066.16;2062079;28;19921;-45
2022/02/14 03:54:52;;;;;;;;;;;;;;;17.63;52.27;99070.78;2059543;28;19926;-43
2022/02/14 03:55:53;;;;;;;;;;;;;;;17.63;52.31;99059.88;2058124;28;19921;-45
2022/02/14 03:56:53;;;;;;;;;;;;;;;17.62;52.29;99069.94;2058676;28;19928;-44
2022/02/14 03:57:53;;;;;;;;;;;;;;;17.61;52.37;99068.19;2060023;28;20339;-48
2022/02/14 03:58:54;;;;;;;;;;;;;;;17.62;52.45;99069.09;2058842;28;19917;-45
2022/02/14 03:59:54;;;;;;;;;;;;;;;17.61;52.61;99061.91;2051732;28;19944;-43
2022/02/14 04:00:55;;;;;;;;;;;;;;;17.60;52.34;99060.22;2047861;28;19914;-43
2022/02/14 04:01:55;;;;;;;;;;;;;;;17.60;52.48;99063.78;2059436;28;19959;-43
2022/02/14 04:02:55;;;;;;;;;;;;;;;17.58;52.62;99061.22;2060022;28;19927;-43
2022/02/14 04:03:56;;;;;;;;;;;;;;;17.58;52.44;99066.66;2058284;28;19960;-44
2022/02/14 04:04:56;;;;;;;;;;;;;;;17.58;52.60;99069.38;2059955;28;19922;-43
2022/02/14 04:05:56;;;;;;;;;;;;;;;17.58;52.54;99066.66;2060450;28;19922;-44
2022/02/14 04:06:56;;;;;;;;;;;;;;;17.58;52.36;99063.09;2058424;28;19928;-44
2022/02/14 04:07:58;;;;;;;;;;;;;;;17.57;52.44;99062.25;2059095;28;19925;-44
2022/02/14 04:08:59;;;;;;;;;;;;;;;17.58;52.53;99068.53;2057944;28;20419;-44
2022/02/14 04:09:59;;;;;;;;;;;;;;;17.58;52.36;99072.13;2060487;28;19929;-43
2022/02/14 04:11:00;;;;;;;;;;;;;;;17.57;52.57;99073.16;2056185;28;19914;-44
2022/02/14 04:12:00;;;;;;;;;;;;;;;17.57;52.64;99077.75;2057138;28;20350;-44
2022/02/14 04:13:00;;;;;;;;;;;;;;;17.57;52.80;99075.03;2057689;28;19953;-44
2022/02/14 04:14:01;;;;;;;;;;;;;;;17.57;52.73;99075.03;2058849;28;19927;-45
2022/02/14 04:15:02;;;;;;;;;;;;;;;17.56;52.58;99074.19;2058236;28;19917;-47
2022/02/14 04:16:02;;;;;;;;;;;;;;;17.56;52.63;99076.03;2059822;28;19925;-44
2022/02/14 04:17:03;;;;;;;;;;;;;;;17.55;52.64;99075.19;2056440;28;19921;-44
2022/02/14 04:18:03;;;;;;;;;;;;;;;17.55;52.53;99072.44;2058548;28;20695;-43
2022/02/14 04:19:03;;;;;;;;;;;;;;;17.54;52.84;99073.47;2056086;28;19926;-43
2022/02/14 04:20:04;;;;;;;;;;;;;;;17.54;52.80;99076.22;2058933;28;19922;-44
2022/02/14 04:21:04;;;;;;;;;;;;;;;17.53;52.59;99063.59;2054056;28;19922;-43
2022/02/14 04:22:05;;;;;;;;;;;;;;;17.53;52.67;99066.31;2058804;28;19925;-43
2022/02/14 04:23:05;;;;;;;;;;;;;;;17.54;52.66;99075.31;2058797;28;19921;-44
2022/02/14 04:24:05;;;;;;;;;;;;;;;17.53;52.85;99070.91;2056458;28;19925;-44
2022/02/14 04:25:09;;;;;;;;;;;;;;;17.53;52.85;99069.03;2059033;28;19921;-44
2022/02/14 04:26:10;;;;;;;;;;;;;;;17.53;52.90;99070.91;2059426;28;20805;-49
2022/02/14 04:27:10;;;;;;;;;;;;;;;17.52;52.66;99075.50;2055896;28;19922;-45
2022/02/14 04:28:10;;;;;;;;;;;;;;;17.52;52.73;99072.78;2058529;28;19925;-48
2022/02/14 04:29:10;;;;;;;;;;;;;;;17.52;52.57;99080.13;2059254;28;19921;-46
2022/02/14 04:30:12;;;;;;;;;;;;;;;17.51;52.86;99076.50;2058955;28;20348;-46
2022/02/14 04:31:12;;;;;;;;;;;;;;;17.51;52.88;99083.84;2056794;28;19929;-46
2022/02/14 04:32:12;;;;;;;;;;;;;;;17.49;52.78;99078.56;2056570;28;20336;-45
2022/02/14 04:33:13;;;;;;;;;;;;;;;17.49;52.90;99081.28;2056171;28;20803;-46
2022/02/14 04:34:14;;;;;;;;;;;;;;;17.48;52.87;99082.28;2060994;28;19936;-45
2022/02/14 04:35:15;;;;;;;;;;;;;;;17.48;52.81;99079.56;2053864;28;20006;-46
2022/02/14 04:36:16;;;;;;;;;;;;;;;17.49;52.95;99088.59;2055680;28;19968;-46
2022/02/14 04:37:16;;;;;;;;;;;;;;;17.47;52.96;99091.50;2055960;28;19948;-47
2022/02/14 04:38:16;;;;;;;;;;;;;;;17.47;52.88;99094.22;2049706;28;19972;-47
2022/02/14 04:39:17;;;;;;;;;;;;;;;17.46;52.74;99092.50;2050475;28;20238;-46
2022/02/14 04:40:18;;;;;;;;;;;;;;;17.46;53.03;99092.50;2055324;28;19922;-44
2022/02/14 04:41:19;;;;;;;;;;;;;;;17.46;53.13;99089.78;2058589;28;19932;-45
2022/02/14 04:42:19;;;;;;;;;;;;;;;17.45;52.87;99101.72;2056466;28;19933;-45
2022/02/14 04:43:19;;;;;;;;;;;;;;;17.45;52.94;99100.84;2058845;28;19976;-45
2022/02/14 04:44:20;;;;;;;;;;;;;;;17.44;53.09;99102.72;2058116;28;19921;-45
2022/02/14 04:45:20;;;;;;;;;;;;;;;17.45;52.76;99109.03;2052107;28;20264;-45
2022/02/14 04:46:21;;;;;;;;;;;;;;;17.45;53.23;99112.59;2048821;28;19926;-45
2022/02/14 04:47:21;;;;;;;;;;;;;;;17.46;53.17;99124.34;2050121;28;20386;-46
2022/02/14 04:48:21;;;;;;;;;;;;;;;17.44;53.00;99121.81;2049989;28;20002;-45
2022/02/14 04:49:22;;;;;;;;;;;;;;;17.45;53.09;99126.22;2059480;28;19921;-45
2022/02/14 04:50:22;;;;;;;;;;;;;;;17.44;53.15;99127.25;2055407;28;19914;-46
2022/02/14 04:51:25;;;;;;;;;;;;;;;17.44;53.25;99120.94;2058064;28;19995;-45
2022/02/14 04:52:26;;;;;;;;;;;;;;;17.44;52.98;99126.38;2062524;28;20467;-45
2022/02/14 04:53:26;;;;;;;;;;;;;;;17.44;53.25;99127.25;2058437;28;20361;-47
2022/02/14 04:54:26;;;;;;;;;;;;;;;17.43;53.10;99128.25;2056627;28;20133;-45
2022/02/14 04:55:27;;;;;;;;;;;;;;;17.43;53.26;99130.97;2057246;28;20040;-45
2022/02/14 04:56:28;;;;;;;;;;;;;;;17.43;53.11;99130.97;2048719;28;19922;-45
2022/02/14 04:57:28;;;;;;;;;;;;;;;17.43;53.00;99141.88;2048806;28;19921;-46
2022/02/14 04:58:29;;;;;;;;;;;;;;;17.42;53.05;99129.28;2058821;28;20252;-45
2022/02/14 04:59:29;;;;;;;;;;;;;;;17.42;53.09;99126.56;2057033;28;19917;-46
2022/02/14 05:00:31;;;;;;;;;;;;;;;17.43;53.26;99133.69;2056687;28;19936;-45
2022/02/14 05:01:31;;;;;;;;;;;;;;;17.42;53.13;99140.19;2058761;28;20115;-46
2022/02/14 05:02:31;;;;;;;;;;;;;;;17.41;53.14;99137.59;2054277;28;20577;-45
2022/02/14 05:03:31;;;;;;;;;;;;;;;17.41;53.22;99141.19;2056138;28;19972;-46
2022/02/14 05:04:32;;;;;;;;;;;;;;;17.41;53.08;99143.91;2056587;28;19917;-45
2022/02/14 05:05:32;;;;;;;;;;;;;;;17.41;53.14;99149.34;2049409;28;19922;-45
2022/02/14 05:06:33;;;;;;;;;;;;;;;17.40;53.12;99142.22;2051614;28;20191;-45
2022/02/14 05:07:34;;;;;;;;;;;;;;;17.40;53.23;99142.22;2060422;28;19922;-45
2022/02/14 05:08:34;;;;;;;;;;;;;;;17.39;53.28;99140.47;2056821;28;20350;-45
2022/02/14 05:09:34;;;;;;;;;;;;;;;17.39;53.29;99145.94;2058714;28;19928;-46
2022/02/14 05:10:35;;;;;;;;;;;;;;;17.38;53.30;99138.78;2057209;28;19925;-46
2022/02/14 05:11:35;;;;;;;;;;;;;;;17.36;53.41;99144.38;2056903;28;19929;-45
2022/02/14 05:12:36;;;;;;;;;;;;;;;17.38;53.28;99148.84;2050031;28;19925;-45
2022/02/14 05:13:40;;;;;;;;;;;;;;;17.36;53.46;99140.81;2048854;28;19937;-45
2022/02/14 05:14:40;;;;;;;;;;;;;;;17.36;53.17;99146.25;2061957;28;19928;-45
2022/02/14 05:15:40;;;;;;;;;;;;;;;17.36;53.54;99151.72;2050327;28;20796;-46
2022/02/14 05:16:41;;;;;;;;;;;;;;;17.36;53.31;99151.72;2050753;28;20762;-47
2022/02/14 05:17:42;;;;;;;;;;;;;;;17.36;53.36;99148.97;2061996;28;19921;-44